Time;durP1;ratioP1;P1;durP2;ratioP2;P2;SDS_P1;SDS_P2;PMS_P1;PMS_P2;Temp;Humidity;BMP_temperature;BMP_pressure;BME280_temperature;BME280_humidity;BME280_pressure;Samples;Min_cycle;Max_cycle;Signal;HPM_P1;HPM_P2
2022/09/11 00:01:39;;;;;;;5.60;4.30;;;18.60;99.90;;;;;;5082965;28;20184;-74
2022/09/11 00:04:08;;;;;;;5.88;4.10;;;18.60;99.90;;;;;;5066372;28;20201;-75
2022/09/11 00:06:34;;;;;;;5.32;4.18;;;18.60;99.90;;;;;;5079557;28;20172;-75
2022/09/11 00:09:03;;;;;;;5.10;4.07;;;18.60;99.90;;;;;;5078887;28;20228;-76
2022/09/11 00:11:40;;;;;;;4.55;4.15;;;18.50;99.90;;;;;;5073714;28;20176;-73
2022/09/11 00:14:06;;;;;;;5.13;4.22;;;18.50;99.90;;;;;;5084365;28;20263;-75
2022/09/11 00:16:40;;;;;;;6.38;5.25;;;18.60;99.90;;;;;;5084236;28;20203;-72
2022/09/11 00:19:09;;;;;;;4.95;4.15;;;18.50;99.90;;;;;;5084089;28;20203;-73
2022/09/11 00:21:35;;;;;;;5.60;4.63;;;18.50;99.90;;;;;;5084235;28;20355;-72
2022/09/11 00:24:01;;;;;;;4.85;4.35;;;18.50;99.90;;;;;;5066227;28;20439;-75
2022/09/11 00:26:27;;;;;;;6.72;4.32;;;18.40;99.90;;;;;;5094573;28;20164;-75
2022/09/11 00:28:54;;;;;;;5.25;4.38;;;18.40;99.90;;;;;;5073297;28;20278;-72
2022/09/11 00:31:23;;;;;;;6.35;4.95;;;18.40;99.90;;;;;;5072531;28;20183;-73
2022/09/11 00:33:50;;;;;;;6.32;4.65;;;18.40;99.90;;;;;;5078376;28;20203;-76
2022/09/11 00:36:24;;;;;;;5.90;5.15;;;18.40;99.90;;;;;;5080191;28;20180;-76
2022/09/11 00:38:50;;;;;;;7.07;4.97;;;18.40;99.90;;;;;;5073699;28;20186;-75
2022/09/11 00:41:23;;;;;;;6.70;5.68;;;18.30;99.90;;;;;;5076809;28;20262;-73
2022/09/11 00:44:15;;;;;;;7.38;5.55;;;18.30;99.90;;;;;;5082375;28;20217;-73
2022/09/11 00:46:43;;;;;;;7.85;5.78;;;18.30;99.90;;;;;;5067049;28;20204;-74
2022/09/11 00:49:35;;;;;;;7.53;5.35;;;18.30;99.90;;;;;;5084607;28;20277;-75
2022/09/11 00:52:24;;;;;;;6.50;5.05;;;18.30;99.90;;;;;;5067289;28;20206;-75
2022/09/11 00:55:15;;;;;;;7.55;5.43;;;18.30;99.90;;;;;;5071381;28;20193;-75
2022/09/11 00:57:45;;;;;;;6.93;5.47;;;18.40;99.90;;;;;;5083099;28;20172;-75
2022/09/11 01:00:12;;;;;;;6.63;5.55;;;18.40;99.90;;;;;;5084632;28;20249;-71
2022/09/11 01:02:41;;;;;;;7.07;6.38;;;18.40;99.90;;;;;;5080975;28;20437;-74
2022/09/11 01:05:07;;;;;;;7.57;6.03;;;18.40;99.90;;;;;;5073824;28;20196;-75
2022/09/11 01:07:37;;;;;;;6.65;5.80;;;18.40;99.90;;;;;;5079578;28;20226;-73
2022/09/11 01:10:07;;;;;;;6.95;5.85;;;18.40;99.90;;;;;;5072336;28;20180;-71
2022/09/11 01:12:50;;;;;;;9.15;6.47;;;18.40;99.90;;;;;;5085309;28;20294;-72
2022/09/11 01:15:46;;;;;;;9.60;6.43;;;18.40;99.90;;;;;;5089015;28;20184;-73
2022/09/11 01:18:25;;;;;;;8.77;6.93;;;18.50;99.90;;;;;;5063461;28;20200;-75
2022/09/11 01:21:28;;;;;;;8.40;6.20;;;18.50;99.90;;;;;;5083047;28;20233;-76
2022/09/11 01:24:03;;;;;;;6.55;5.85;;;18.50;99.90;;;;;;5017316;28;20220;-74
2022/09/11 01:26:37;;;;;;;9.35;7.10;;;18.50;99.90;;;;;;5075959;28;20164;-74
2022/09/11 01:29:24;;;;;;;9.93;7.47;;;18.50;99.90;;;;;;5064963;28;20180;-75
2022/09/11 01:31:58;;;;;;;10.27;7.25;;;18.50;99.90;;;;;;5073667;28;20172;-75
2022/09/11 01:34:39;;;;;;;9.90;7.47;;;18.50;99.90;;;;;;5085235;28;20178;-70
2022/09/11 01:37:12;;;;;;;8.45;7.00;;;18.50;99.90;;;;;;5052074;28;20204;-72
2022/09/11 01:39:51;;;;;;;10.65;7.20;;;18.50;99.90;;;;;;5085106;28;20184;-73
2022/09/11 01:42:22;;;;;;;10.85;7.22;;;18.50;99.90;;;;;;5081863;28;20200;-74
2022/09/11 01:44:53;;;;;;;9.80;7.10;;;18.50;99.90;;;;;;5085402;28;20195;-73
2022/09/11 01:47:20;;;;;;;9.63;7.68;;;18.50;99.90;;;;;;5081435;28;20193;-72
2022/09/11 01:50:08;;;;;;;11.50;8.50;;;18.50;99.90;;;;;;5080979;28;20292;-72
2022/09/11 01:52:52;;;;;;;10.45;8.02;;;18.60;99.90;;;;;;5074625;28;20173;-74
2022/09/11 01:55:27;;;;;;;10.30;8.32;;;18.60;99.90;;;;;;5080389;28;20211;-75
2022/09/11 01:58:06;;;;;;;11.20;7.95;;;18.60;99.90;;;;;;5075600;28;20261;-73
2022/09/11 02:00:36;;;;;;;11.50;8.75;;;18.60;99.90;;;;;;5067967;28;20196;-71
2022/09/11 02:03:09;;;;;;;12.13;8.07;;;18.60;99.90;;;;;;5088156;28;20152;-70
2022/09/11 02:05:46;;;;;;;9.98;8.57;;;18.60;99.90;;;;;;5071177;28;20207;-74
2022/09/11 02:08:27;;;;;;;11.02;9.10;;;18.60;99.90;;;;;;5052676;28;20207;-75
2022/09/11 02:11:02;;;;;;;12.30;9.95;;;18.60;99.90;;;;;;5085279;28;20164;-76
2022/09/11 02:13:56;;;;;;;11.35;9.55;;;18.60;99.90;;;;;;5084088;28;20183;-74
2022/09/11 02:16:27;;;;;;;11.45;8.85;;;18.60;99.90;;;;;;5069493;28;20192;-73
2022/09/11 02:19:03;;;;;;;9.80;8.63;;;18.60;99.90;;;;;;5077713;28;20206;-74
2022/09/11 02:21:31;;;;;;;11.40;9.85;;;18.60;99.90;;;;;;5085461;28;20167;-74
2022/09/11 02:23:57;;;;;;;10.60;9.27;;;18.60;99.90;;;;;;5084805;28;20254;-75
2022/09/11 02:26:27;;;;;;;11.15;9.95;;;18.60;99.90;;;;;;5082223;28;20256;-76
2022/09/11 02:28:54;;;;;;;10.18;9.07;;;18.60;99.90;;;;;;5084276;28;20258;-74
2022/09/11 02:31:21;;;;;;;11.90;9.20;;;18.60;99.90;;;;;;5097498;28;20195;-75
2022/09/11 02:33:47;;;;;;;11.95;9.68;;;18.60;99.90;;;;;;5078739;28;20196;-75
2022/09/11 02:36:21;;;;;;;11.18;9.68;;;18.60;99.90;;;;;;5082099;28;20272;-75
2022/09/11 02:39:08;;;;;;;14.52;11.57;;;18.60;99.90;;;;;;5083276;28;20202;-74
2022/09/11 02:41:58;;;;;;;13.27;10.32;;;18.60;99.90;;;;;;5074720;28;20183;-74
2022/09/11 02:44:41;;;;;;;11.90;9.43;;;18.70;99.90;;;;;;5085422;28;20217;-73
2022/09/11 02:47:21;;;;;;;11.88;10.38;;;18.70;99.90;;;;;;5076317;28;20184;-75
2022/09/11 02:49:53;;;;;;;12.00;10.10;;;18.70;99.90;;;;;;5070858;28;20176;-76
2022/09/11 02:52:41;;;;;;;12.95;10.50;;;18.60;99.90;;;;;;5081760;28;20231;-75
2022/09/11 02:55:07;;;;;;;12.98;11.00;;;18.60;99.90;;;;;;5075985;28;20240;-75
2022/09/11 02:57:41;;;;;;;12.40;11.10;;;18.60;99.90;;;;;;5080751;28;20216;-75
2022/09/11 03:00:11;;;;;;;14.32;11.75;;;18.60;99.90;;;;;;5084807;28;20175;-75
2022/09/11 03:02:40;;;;;;;14.95;12.45;;;18.60;99.90;;;;;;5085811;28;20178;-72
2022/09/11 03:05:08;;;;;;;16.25;13.40;;;18.60;99.90;;;;;;5076817;28;20245;-77
2022/09/11 03:07:36;;;;;;;15.65;13.32;;;18.60;99.90;;;;;;5068338;28;20194;-75
2022/09/11 03:10:05;;;;;;;15.68;13.77;;;18.60;99.90;;;;;;5063449;28;20169;-75
2022/09/11 03:12:30;;;;;;;19.20;15.40;;;18.60;99.90;;;;;;5087074;28;20188;-75
2022/09/11 03:14:59;;;;;;;14.48;12.77;;;18.50;99.90;;;;;;5084619;28;20194;-75
2022/09/11 03:17:26;;;;;;;16.65;13.23;;;18.50;99.90;;;;;;5081338;28;20196;-74
2022/09/11 03:19:54;;;;;;;19.35;14.88;;;18.50;99.90;;;;;;5064188;28;20203;-75
2022/09/11 03:22:20;;;;;;;16.45;12.65;;;18.50;99.90;;;;;;5085170;28;20200;-76
2022/09/11 03:24:47;;;;;;;17.05;13.43;;;18.40;99.90;;;;;;5076870;28;20199;-76
2022/09/11 03:27:13;;;;;;;16.35;12.50;;;18.40;99.90;;;;;;5083577;28;20195;-74
2022/09/11 03:29:39;;;;;;;18.63;14.63;;;18.40;99.90;;;;;;5071116;28;20199;-75
2022/09/11 03:32:05;;;;;;;17.98;14.55;;;18.40;99.90;;;;;;5082329;28;20195;-74
2022/09/11 03:34:38;;;;;;;18.75;14.38;;;18.40;99.90;;;;;;5081459;28;20200;-74
2022/09/11 03:37:03;;;;;;;18.83;14.40;;;18.30;99.90;;;;;;5078416;28;20180;-75
2022/09/11 03:39:29;;;;;;;18.38;15.00;;;18.30;99.90;;;;;;5074931;28;20211;-75
2022/09/11 03:41:55;;;;;;;20.63;15.32;;;18.30;99.90;;;;;;5082847;28;20180;-74
2022/09/11 03:44:23;;;;;;;20.73;14.77;;;18.30;99.90;;;;;;5083617;28;20254;-71
2022/09/11 03:46:51;;;;;;;17.30;14.20;;;18.30;99.90;;;;;;5085483;28;20306;-70
2022/09/11 03:49:17;;;;;;;19.08;14.73;;;18.30;99.90;;;;;;5084929;28;20172;-70
2022/09/11 03:51:46;;;;;;;20.27;15.02;;;18.20;99.90;;;;;;5067565;28;20168;-69
2022/09/11 03:54:16;;;;;;;18.20;14.25;;;18.20;99.90;;;;;;5077158;28;20178;-68
2022/09/11 03:56:44;;;;;;;18.73;14.13;;;18.10;99.90;;;;;;5087983;28;20173;-69
2022/09/11 03:59:09;;;;;;;17.70;13.82;;;18.10;99.90;;;;;;5085289;28;20202;-70
2022/09/11 04:01:40;;;;;;;17.60;13.70;;;18.00;99.90;;;;;;5090945;28;20359;-69
2022/09/11 04:04:05;;;;;;;22.80;16.73;;;18.00;99.90;;;;;;5097476;28;20192;-70
2022/09/11 04:06:31;;;;;;;20.77;14.98;;;17.90;99.90;;;;;;5081606;28;20202;-70
2022/09/11 04:08:57;;;;;;;18.40;14.75;;;17.90;99.90;;;;;;5089784;28;20184;-67
2022/09/11 04:11:23;;;;;;;22.83;15.88;;;17.80;99.90;;;;;;5092004;28;20191;-69
2022/09/11 04:13:51;;;;;;;19.65;15.93;;;17.80;99.90;;;;;;5090117;28;20191;-68
2022/09/11 04:16:18;;;;;;;22.42;17.33;;;17.80;99.90;;;;;;5074263;28;20184;-68
2022/09/11 04:18:48;;;;;;;26.23;19.00;;;17.80;99.90;;;;;;5090050;28;20176;-66
2022/09/11 04:21:18;;;;;;;22.05;16.52;;;17.70;99.90;;;;;;5088125;28;20187;-69
2022/09/11 04:23:50;;;;;;;22.27;16.48;;;17.70;99.90;;;;;;5089493;28;20210;-68
2022/09/11 04:26:20;;;;;;;22.33;15.77;;;17.60;99.90;;;;;;5088589;28;20239;-70
2022/09/11 04:28:48;;;;;;;21.25;16.05;;;17.70;99.90;;;;;;5083222;28;20176;-70
2022/09/11 04:31:18;;;;;;;23.27;17.10;;;17.60;99.90;;;;;;5081154;28;20188;-70
2022/09/11 04:33:49;;;;;;;21.63;15.98;;;17.70;99.90;;;;;;5083462;28;20187;-70
2022/09/11 04:36:17;;;;;;;22.60;17.58;;;17.60;99.90;;;;;;5082125;28;20171;-69
2022/09/11 04:38:44;;;;;;;23.70;17.75;;;17.70;99.90;;;;;;5090113;28;20240;-71
2022/09/11 04:41:10;;;;;;;24.90;18.27;;;17.70;99.90;;;;;;5089789;28;20176;-69
2022/09/11 04:43:38;;;;;;;27.10;19.45;;;17.70;99.90;;;;;;5080556;28;20281;-69
2022/09/11 04:46:09;;;;;;;26.35;19.20;;;17.70;99.90;;;;;;5082532;28;20156;-68
2022/09/11 04:48:38;;;;;;;25.40;18.88;;;17.70;99.90;;;;;;5086212;28;20175;-70
2022/09/11 04:51:06;;;;;;;25.23;18.00;;;17.70;99.90;;;;;;5089335;28;20207;-69
2022/09/11 04:53:32;;;;;;;23.50;17.60;;;17.70;99.90;;;;;;5090167;28;20172;-68
2022/09/11 04:56:02;;;;;;;27.80;20.92;;;17.70;99.90;;;;;;5088305;28;20208;-70
2022/09/11 04:58:28;;;;;;;24.10;17.33;;;17.70;99.90;;;;;;5105178;28;20183;-70
2022/09/11 05:00:56;;;;;;;25.95;18.98;;;17.60;99.90;;;;;;5083605;28;20225;-71
2022/09/11 05:03:23;;;;;;;22.65;16.23;;;17.60;99.90;;;;;;5085832;28;20263;-71
2022/09/11 05:05:49;;;;;;;28.50;18.90;;;17.70;99.90;;;;;;5086220;28;20194;-70
2022/09/11 05:08:17;;;;;;;30.73;19.88;;;17.70;99.90;;;;;;5096677;28;20148;-69
2022/09/11 05:10:46;;;;;;;31.23;21.95;;;17.70;99.90;;;;;;5084821;28;20180;-71
2022/09/11 05:13:15;;;;;;;31.92;21.35;;;17.70;99.90;;;;;;5090361;28;20172;-70
2022/09/11 05:15:43;;;;;;;27.42;19.02;;;17.70;99.90;;;;;;5086220;28;20184;-71
2022/09/11 05:18:12;;;;;;;29.77;20.20;;;17.60;99.90;;;;;;5096670;28;20164;-69
2022/09/11 05:20:40;;;;;;;29.25;19.85;;;17.60;99.90;;;;;;5093126;28;20168;-72
2022/09/11 05:23:06;;;;;;;27.58;19.27;;;17.70;99.90;;;;;;5083793;28;20169;-71
2022/09/11 05:25:35;;;;;;;28.70;20.15;;;17.60;99.90;;;;;;5075947;28;20196;-71
2022/09/11 05:28:05;;;;;;;28.67;20.05;;;17.60;99.90;;;;;;5092767;28;20160;-69
2022/09/11 05:30:33;;;;;;;31.27;20.80;;;17.60;99.90;;;;;;5076197;28;20266;-71
2022/09/11 05:32:58;;;;;;;31.58;21.75;;;17.70;99.90;;;;;;5082935;28;20197;-69
2022/09/11 05:35:25;;;;;;;31.20;21.90;;;17.70;99.90;;;;;;5094588;28;20175;-69
2022/09/11 05:37:53;;;;;;;32.15;22.17;;;17.60;99.90;;;;;;5084878;28;20184;-71
2022/09/11 05:40:23;;;;;;;30.83;21.83;;;17.70;99.90;;;;;;5088365;28;20199;-69
2022/09/11 05:42:51;;;;;;;27.77;20.88;;;17.70;99.90;;;;;;5088252;28;20195;-71
2022/09/11 05:45:17;;;;;;;32.83;22.08;;;17.70;99.90;;;;;;5082378;28;20245;-71
2022/09/11 05:47:44;;;;;;;32.08;22.77;;;17.70;99.90;;;;;;5081125;28;20172;-70
2022/09/11 05:50:13;;;;;;;34.30;21.67;;;17.70;99.90;;;;;;5094730;28;20244;-69
2022/09/11 05:52:41;;;;;;;28.33;19.63;;;17.70;99.90;;;;;;5096268;28;20234;-70
2022/09/11 05:55:09;;;;;;;27.13;17.75;;;17.80;99.90;;;;;;5092583;28;20180;-75
2022/09/11 05:57:37;;;;;;;27.65;19.27;;;17.70;99.90;;;;;;5088152;28;20183;-71
2022/09/11 06:00:08;;;;;;;29.85;21.33;;;17.80;99.90;;;;;;5090017;28;20172;-72
2022/09/11 06:02:38;;;;;;;31.02;21.40;;;17.80;99.90;;;;;;5080806;28;20172;-73
2022/09/11 06:05:04;;;;;;;35.78;24.63;;;17.80;99.90;;;;;;5083459;28;20291;-72
2022/09/11 06:07:34;;;;;;;34.20;22.42;;;17.80;99.90;;;;;;5088452;28;20204;-72
2022/09/11 06:10:00;;;;;;;41.42;25.05;;;17.80;99.90;;;;;;5084040;28;20203;-73
2022/09/11 06:12:26;;;;;;;39.45;26.17;;;17.80;99.90;;;;;;5085442;28;20198;-72
2022/09/11 06:14:51;;;;;;;50.67;32.15;;;17.80;99.90;;;;;;5083029;28;20176;-71
2022/09/11 06:17:17;;;;;;;40.53;27.48;;;17.80;99.90;;;;;;5083123;28;20196;-71
2022/09/11 06:19:43;;;;;;;38.92;25.70;;;17.70;99.90;;;;;;5089158;28;20824;-71
2022/09/11 06:22:09;;;;;;;38.83;25.17;;;17.70;99.90;;;;;;5097777;28;20283;-72
2022/09/11 06:24:37;;;;;;;39.10;24.30;;;17.70;99.90;;;;;;5085865;28;20279;-71
2022/09/11 06:27:03;;;;;;;43.70;25.52;;;17.70;99.90;;;;;;5085767;28;20173;-72
2022/09/11 06:29:31;;;;;;;40.53;24.77;;;17.70;99.90;;;;;;5080109;28;20192;-71
2022/09/11 06:31:59;;;;;;;39.50;25.35;;;17.80;99.90;;;;;;5087113;28;20210;-74
2022/09/11 06:34:30;;;;;;;46.03;27.42;;;17.80;99.90;;;;;;5086183;28;20255;-74
2022/09/11 06:36:56;;;;;;;38.00;23.60;;;17.80;99.90;;;;;;5082680;28;20204;-70
2022/09/11 06:39:21;;;;;;;35.50;22.02;;;17.80;99.90;;;;;;5085437;28;20185;-73
2022/09/11 06:41:47;;;;;;;32.22;21.50;;;17.80;99.90;;;;;;5088274;28;20172;-73
2022/09/11 06:44:14;;;;;;;31.50;20.23;;;17.80;99.90;;;;;;5082029;28;20258;-71
2022/09/11 06:46:39;;;;;;;27.73;18.65;;;17.80;99.90;;;;;;5094535;28;20180;-70
2022/09/11 06:49:05;;;;;;;29.00;20.45;;;17.90;99.90;;;;;;5097452;28;20204;-71
2022/09/11 06:51:34;;;;;;;26.05;19.20;;;17.90;99.90;;;;;;5089876;28;20172;-71
2022/09/11 06:54:04;;;;;;;26.63;17.98;;;17.90;99.90;;;;;;5091039;28;20251;-69
2022/09/11 06:56:32;;;;;;;29.05;18.48;;;17.90;99.90;;;;;;5094477;28;20201;-71
2022/09/11 06:58:58;;;;;;;25.73;17.25;;;17.90;99.90;;;;;;5092463;28;20191;-72
2022/09/11 07:01:27;;;;;;;27.20;18.17;;;17.90;99.90;;;;;;5088905;28;20200;-70
2022/09/11 07:03:53;;;;;;;34.53;21.17;;;17.90;99.90;;;;;;5095258;28;20200;-69
2022/09/11 07:06:23;;;;;;;37.53;22.55;;;17.90;99.90;;;;;;5105799;28;20180;-68
2022/09/11 07:08:59;;;;;;;36.85;22.85;;;18.00;99.90;;;;;;5083661;28;20199;-72
2022/09/11 07:11:25;;;;;;;37.65;22.83;;;17.90;99.90;;;;;;5080983;28;20183;-71
2022/09/11 07:13:51;;;;;;;37.00;21.70;;;17.90;99.90;;;;;;5096727;28;20198;-67
2022/09/11 07:16:16;;;;;;;35.08;21.25;;;17.90;99.90;;;;;;5096278;28;20183;-71
2022/09/11 07:18:46;;;;;;;37.80;22.40;;;17.90;99.90;;;;;;5089492;28;20210;-72
2022/09/11 07:21:18;;;;;;;42.45;24.23;;;17.90;99.90;;;;;;5080087;28;20189;-70
2022/09/11 07:23:53;;;;;;;37.08;21.38;;;18.00;99.90;;;;;;5097774;28;20204;-72
2022/09/11 07:26:19;;;;;;;38.13;22.80;;;18.00;99.90;;;;;;5090202;28;20205;-70
2022/09/11 07:28:50;;;;;;;38.08;23.13;;;18.00;99.90;;;;;;5079401;28;20197;-73
2022/09/11 07:31:23;;;;;;;42.45;23.60;;;18.10;99.90;;;;;;5096632;28;20195;-70
2022/09/11 07:33:51;;;;;;;39.35;22.70;;;18.10;99.90;;;;;;5095846;28;20180;-72
2022/09/11 07:36:28;;;;;;;39.92;22.13;;;18.10;99.90;;;;;;5092392;28;20159;-72
2022/09/11 07:38:55;;;;;;;35.28;20.50;;;18.10;99.90;;;;;;5087502;28;20198;-69
2022/09/11 07:41:22;;;;;;;37.17;20.75;;;18.10;99.90;;;;;;5086612;28;20188;-70
2022/09/11 07:43:52;;;;;;;42.33;23.20;;;18.10;99.90;;;;;;5089473;28;20180;-72
2022/09/11 07:46:18;;;;;;;35.33;21.15;;;18.20;99.90;;;;;;5090094;28;20239;-72
2022/09/11 07:48:46;;;;;;;36.38;21.15;;;18.20;99.90;;;;;;5093602;28;20195;-69
2022/09/11 07:51:17;;;;;;;34.08;21.13;;;18.20;99.90;;;;;;5094717;28;20190;-72
2022/09/11 07:53:49;;;;;;;36.50;21.70;;;18.30;99.90;;;;;;5087618;28;20179;-73
2022/09/11 07:56:22;;;;;;;34.85;21.40;;;18.30;99.90;;;;;;5088415;28;20195;-73
2022/09/11 07:58:54;;;;;;;28.50;18.55;;;18.40;99.90;;;;;;5082823;28;20159;-72
2022/09/11 08:01:28;;;;;;;29.48;19.10;;;18.40;99.90;;;;;;5093430;28;20215;-72
2022/09/11 08:04:03;;;;;;;31.63;20.10;;;18.50;99.90;;;;;;5095871;28;20191;-68
2022/09/11 08:06:33;;;;;;;31.73;20.08;;;18.50;99.90;;;;;;5085906;28;20168;-67
2022/09/11 08:09:05;;;;;;;30.33;19.63;;;18.50;99.90;;;;;;5090136;28;20176;-70
2022/09/11 08:11:37;;;;;;;31.92;19.95;;;18.50;99.90;;;;;;5089798;28;20225;-72
2022/09/11 08:14:06;;;;;;;26.05;17.10;;;18.50;99.90;;;;;;5076795;28;20200;-70
2022/09/11 08:16:39;;;;;;;28.55;18.25;;;18.50;99.90;;;;;;5086591;28;20173;-69
2022/09/11 08:19:06;;;;;;;29.23;18.02;;;18.50;99.90;;;;;;5072620;28;20226;-73
2022/09/11 08:21:32;;;;;;;25.70;17.35;;;18.50;99.90;;;;;;5077208;28;20172;-74
2022/09/11 08:24:02;;;;;;;35.40;21.10;;;18.50;99.90;;;;;;5094802;28;20239;-70
2022/09/11 08:26:30;;;;;;;28.63;18.38;;;18.50;99.90;;;;;;5082200;28;20172;-72
2022/09/11 08:29:02;;;;;;;26.58;17.08;;;18.40;99.90;;;;;;5094426;28;20212;-72
2022/09/11 08:31:32;;;;;;;29.85;19.33;;;18.50;99.90;;;;;;5094602;28;20195;-71
2022/09/11 08:33:58;;;;;;;25.88;16.90;;;18.50;99.90;;;;;;5088149;28;20163;-70
2022/09/11 08:36:27;;;;;;;28.08;16.65;;;18.50;99.90;;;;;;5082333;28;20177;-71
2022/09/11 08:38:59;;;;;;;26.23;17.65;;;18.50;99.90;;;;;;5087542;28;20229;-73
2022/09/11 08:41:35;;;;;;;23.00;16.10;;;18.50;99.90;;;;;;5082271;28;20255;-73
2022/09/11 08:44:03;;;;;;;28.38;17.08;;;18.50;99.90;;;;;;5076520;28;20196;-72
2022/09/11 08:46:39;;;;;;;27.25;17.45;;;18.50;99.90;;;;;;5087783;28;20221;-72
2022/09/11 08:49:30;;;;;;;23.92;17.20;;;18.60;99.90;;;;;;5089997;28;20228;-72
2022/09/11 08:52:01;;;;;;;23.13;15.32;;;18.60;99.90;;;;;;5092828;28;20168;-72
2022/09/11 08:54:36;;;;;;;24.23;16.20;;;18.70;99.90;;;;;;5095757;28;20188;-73
2022/09/11 08:57:23;;;;;;;23.58;15.52;;;18.70;99.90;;;;;;5092099;28;20157;-73
2022/09/11 09:00:08;;;;;;;20.90;15.55;;;18.70;99.90;;;;;;5092766;28;20194;-72
2022/09/11 09:03:11;;;;;;;20.73;15.10;;;18.70;99.90;;;;;;5093463;28;20172;-71
2022/09/11 09:05:48;;;;;;;19.90;14.52;;;18.70;99.90;;;;;;5075385;28;20192;-71
2022/09/11 09:08:25;;;;;;;19.65;13.70;;;18.70;99.90;;;;;;5089556;28;20235;-72
2022/09/11 09:11:21;;;;;;;24.42;15.52;;;18.80;99.90;;;;;;5080435;28;20218;-72
2022/09/11 09:14:08;;;;;;;21.83;16.15;;;18.80;99.90;;;;;;5088656;28;20176;-72
2022/09/11 09:16:42;;;;;;;25.25;16.27;;;18.90;99.90;;;;;;5111364;28;20205;-70
2022/09/11 09:19:29;;;;;;;22.88;15.93;;;18.90;99.90;;;;;;5093802;28;20256;-69
2022/09/11 09:22:18;;;;;;;19.33;13.77;;;19.00;99.90;;;;;;5084765;28;20177;-71
2022/09/11 09:24:59;;;;;;;23.48;15.52;;;19.10;99.90;;;;;;5089069;28;20204;-71
2022/09/11 09:27:38;;;;;;;19.85;14.20;;;19.20;99.90;;;;;;5099724;28;20227;-69
2022/09/11 09:30:12;;;;;;;22.30;14.75;;;19.30;99.90;;;;;;5097607;28;20203;-72
2022/09/11 09:32:54;;;;;;;20.20;13.45;;;19.30;99.90;;;;;;5084461;28;20188;-71
2022/09/11 09:35:40;;;;;;;17.80;13.68;;;19.50;99.90;;;;;;5095218;28;20183;-72
2022/09/11 09:38:21;;;;;;;19.50;13.70;;;19.50;99.90;;;;;;5091054;28;20191;-72
2022/09/11 09:41:06;;;;;;;17.73;13.63;;;19.60;99.90;;;;;;5092086;28;20168;-68
2022/09/11 09:43:43;;;;;;;22.80;15.43;;;19.70;99.90;;;;;;5080368;28;20203;-72
2022/09/11 09:46:40;;;;;;;23.75;15.88;;;19.70;99.90;;;;;;5098439;28;20188;-70
2022/09/11 09:49:17;;;;;;;24.98;16.80;;;19.80;99.90;;;;;;5075944;28;20230;-72
2022/09/11 09:51:43;;;;;;;26.23;17.65;;;19.90;99.90;;;;;;5097816;28;20172;-69
2022/09/11 09:54:16;;;;;;;26.40;18.10;;;19.90;99.90;;;;;;5091110;28;20283;-67
2022/09/11 09:56:48;;;;;;;25.23;16.88;;;20.00;99.90;;;;;;5091046;28;20192;-69
2022/09/11 09:59:18;;;;;;;32.00;22.90;;;20.00;99.90;;;;;;5088113;28;20172;-71
2022/09/11 10:01:53;;;;;;;27.30;19.80;;;20.10;99.90;;;;;;5085128;28;20229;-71
2022/09/11 10:04:32;;;;;;;26.58;19.50;;;20.10;99.90;;;;;;5098250;28;20218;-67
2022/09/11 10:07:04;;;;;;;28.00;19.05;;;20.20;99.90;;;;;;5096899;28;20257;-71
2022/09/11 10:09:32;;;;;;;27.88;19.25;;;20.30;99.90;;;;;;5092752;28;20198;-71
2022/09/11 10:12:06;;;;;;;25.83;19.23;;;20.30;99.90;;;;;;5092340;28;20226;-72
2022/09/11 10:14:41;;;;;;;27.23;19.85;;;20.30;99.90;;;;;;5096443;28;20160;-72
2022/09/11 10:17:20;;;;;;;28.08;19.73;;;20.30;99.90;;;;;;5083627;28;20168;-69
2022/09/11 10:19:46;;;;;;;35.25;24.85;;;20.30;99.90;;;;;;5089872;28;20160;-71
2022/09/11 10:22:22;;;;;;;30.80;22.48;;;20.40;99.90;;;;;;5095478;28;20176;-68
2022/09/11 10:24:58;;;;;;;27.95;21.52;;;20.40;99.90;;;;;;5093621;28;20219;-71
2022/09/11 10:27:24;;;;;;;26.23;19.95;;;20.40;99.90;;;;;;5093103;28;20171;-71
2022/09/11 10:29:50;;;;;;;26.17;19.52;;;20.40;99.90;;;;;;5090585;28;20263;-71
2022/09/11 10:32:17;;;;;;;25.23;18.65;;;20.40;99.90;;;;;;5093411;28;20204;-72
2022/09/11 10:34:43;;;;;;;25.52;19.23;;;20.40;99.90;;;;;;5090376;28;20174;-72
2022/09/11 10:37:14;;;;;;;25.35;18.73;;;20.50;99.90;;;;;;5088679;28;20191;-67
2022/09/11 10:39:43;;;;;;;26.60;21.25;;;20.60;99.90;;;;;;5098806;28;20176;-71
2022/09/11 10:42:26;;;;;;;24.92;18.55;;;20.70;99.90;;;;;;5094405;28;20266;-70
2022/09/11 10:44:56;;;;;;;22.25;17.48;;;20.90;99.90;;;;;;5087919;28;20227;-71
2022/09/11 10:47:24;;;;;;;21.92;17.30;;;21.40;99.90;;;;;;5096635;28;20180;-68
2022/09/11 10:50:16;;;;;;;22.20;17.08;;;21.80;99.90;;;;;;5096960;28;20176;-72
2022/09/11 10:52:56;;;;;;;19.85;15.15;;;22.30;99.90;;;;;;5093758;28;20229;-69
2022/09/11 10:55:29;;;;;;;18.38;14.65;;;22.60;99.90;;;;;;5109618;28;20172;-72
2022/09/11 10:58:08;;;;;;;17.88;13.75;;;22.70;99.90;;;;;;5078950;28;20180;-71
2022/09/11 11:00:37;;;;;;;17.65;13.93;;;22.90;99.90;;;;;;5077199;28;20192;-71
2022/09/11 11:03:05;;;;;;;18.00;12.90;;;23.30;99.90;;;;;;5093839;28;20206;-69
2022/09/11 11:05:59;;;;;;;14.18;12.07;;;23.50;99.90;;;;;;5083963;28;20234;-73
2022/09/11 11:08:49;;;;;;;14.43;11.73;;;23.90;99.90;;;;;;5089631;28;20248;-72
2022/09/11 11:11:36;;;;;;;16.15;12.98;;;24.10;99.90;;;;;;5091300;28;20200;-72
2022/09/11 11:14:36;;;;;;;14.82;11.68;;;24.40;99.90;;;;;;5092337;28;20237;-73
2022/09/11 11:17:40;;;;;;;14.00;11.55;;;24.70;99.90;;;;;;5094577;28;20259;-72
2022/09/11 11:20:23;;;;;;;10.85;9.70;;;24.90;99.90;;;;;;5082816;28;20176;-70
2022/09/11 11:23:21;;;;;;;12.35;9.60;;;25.10;99.90;;;;;;5075890;28;20189;-67
2022/09/11 11:26:09;;;;;;;10.50;8.95;;;25.30;99.90;;;;;;5093639;28;20204;-72
2022/09/11 11:28:40;;;;;;;11.90;9.63;;;25.40;99.90;;;;;;5094990;28;20312;-69
2022/09/11 11:31:28;;;;;;;11.05;9.50;;;25.50;99.90;;;;;;5096266;28;20172;-71
2022/09/11 11:33:56;;;;;;;11.43;9.38;;;25.60;99.90;;;;;;5097559;28;20187;-71
2022/09/11 11:36:37;;;;;;;11.60;10.38;;;25.70;99.90;;;;;;5091756;28;20207;-71
2022/09/11 11:39:16;;;;;;;11.02;8.88;;;25.70;99.90;;;;;;5088028;28;20175;-70
2022/09/11 11:41:47;;;;;;;10.82;9.32;;;25.70;99.90;;;;;;5094719;28;20187;-69
2022/09/11 11:44:31;;;;;;;11.60;9.88;;;25.70;99.90;;;;;;5076970;28;20216;-72
2022/09/11 11:47:05;;;;;;;12.85;10.32;;;25.70;99.90;;;;;;5093791;28;20298;-70
2022/09/11 11:49:44;;;;;;;9.20;8.30;;;25.70;99.90;;;;;;5090773;28;20227;-70
2022/09/11 11:52:30;;;;;;;9.82;8.63;;;25.90;99.90;;;;;;5113455;28;20239;-71
2022/09/11 11:55:15;;;;;;;9.20;8.18;;;26.00;99.90;;;;;;5052032;28;20287;-78
2022/09/11 11:58:03;;;;;;;9.80;8.80;;;26.00;99.90;;;;;;5090264;28;20180;-72
2022/09/11 12:00:38;;;;;;;11.35;10.07;;;26.00;99.90;;;;;;5085695;28;20294;-73
2022/09/11 12:03:09;;;;;;;10.13;8.77;;;26.00;99.90;;;;;;5093950;28;20408;-74
2022/09/11 12:05:37;;;;;;;9.10;8.20;;;26.10;99.90;;;;;;5091135;28;20231;-73
2022/09/11 12:08:12;;;;;;;9.20;8.30;;;26.10;99.90;;;;;;5095148;28;20213;-72
2022/09/11 12:10:41;;;;;;;9.85;8.07;;;26.10;99.90;;;;;;5109185;28;20270;-74
2022/09/11 12:13:14;;;;;;;8.82;7.88;;;26.10;99.90;;;;;;5094405;28;20188;-71
2022/09/11 12:16:13;;;;;;;10.60;8.40;;;26.20;99.90;;;;;;5097784;28;20184;-65
2022/09/11 12:18:58;;;;;;;10.10;9.18;;;26.40;99.90;;;;;;5092011;28;20225;-71
2022/09/11 12:21:30;;;;;;;10.77;9.68;;;26.50;99.90;;;;;;5091431;28;20179;-74
2022/09/11 12:23:55;;;;;;;11.55;10.30;;;26.60;99.90;;;;;;5087880;28;20208;-72
2022/09/11 12:26:24;;;;;;;10.25;9.25;;;26.50;99.90;;;;;;5086409;28;20204;-71
2022/09/11 12:29:18;;;;;;;9.45;8.55;;;26.30;99.90;;;;;;5092513;28;20195;-70
2022/09/11 12:32:18;;;;;;;10.35;8.27;;;26.10;99.90;;;;;;5045350;28;20213;-74
2022/09/11 12:34:43;;;;;;;9.77;8.85;;;25.90;99.90;;;;;;5079739;28;20193;-74
2022/09/11 12:37:31;;;;;;;10.10;9.10;;;25.70;99.90;;;;;;5092811;28;20229;-74
2022/09/11 12:40:31;;;;;;;9.52;8.45;;;25.70;99.90;;;;;;5083492;28;20164;-72
2022/09/11 12:43:19;;;;;;;9.25;8.35;;;25.60;99.90;;;;;;5091949;28;20192;-72
2022/09/11 12:45:47;;;;;;;10.48;9.48;;;25.70;99.90;;;;;;5075233;28;20204;-75
2022/09/11 12:48:16;;;;;;;10.02;9.13;;;25.70;99.90;;;;;;5088859;28;20233;-70
2022/09/11 12:50:53;;;;;;;10.32;9.10;;;25.70;99.90;;;;;;5087636;28;20168;-74
2022/09/11 12:53:24;;;;;;;10.35;9.35;;;25.80;99.90;;;;;;5089861;28;20199;-75
2022/09/11 12:56:06;;;;;;;10.85;9.85;;;26.00;99.90;;;;;;5087904;28;20172;-69
2022/09/11 12:58:43;;;;;;;10.73;9.63;;;26.20;99.90;;;;;;5078864;28;20204;-71
2022/09/11 13:01:22;;;;;;;9.93;8.93;;;26.50;99.90;;;;;;5071170;28;20199;-71